Owyhee, Nevada
Current Conditions -  °F | °C
As of 1:58 AM on Sunday 25 Jan 2015 (Local Time) from KMUO Reporting Station
Clear Clear  
Wind Chill: 24°   Ceiling: Unl
Heat Index: 29°   Visibility: 10mi
Dew Point: 27°   Wind: 5mph
Humidity: 92%   Direction: 100°E
Pressure: 30.47"   Gusts: NA
Location:  41.95°N, 116.09°W
Report Text: KMUO 250958Z AUTO 10004KT 10SM CLR M02/M03 A3047 RMK AO2 SLP341 T10181029
Loading
Personal Weather Stations






























Interactive Weather Map New forecast layout! Learn more

10-Day Weather Forecast

Advertisements
Track Severe Weather on mobile